Nearby METAR Reports

YMLT - Launceston Airpo, Australia
Distance from station: N 179km
Updated: 11/04/2021 18:30
Clear
Clear
 Wind from S
Wind: S 22 km/h
Temperature: 9°C
Wind Chill: 6°C
Dew Point: 1°C
Humidity: 58%
Barometer: 1011 hPa
Clouds: Clear
Visibility: 10 km
2021/04/11 08:30 YMLT 110830Z AUTO 17012KT 9999 // NCD 09/01 Q1011 RF00.0/000.0
YMHB - Hobart/Tasmania, Australia
Distance from station: NE 55km
Updated: 11/04/2021 18:30
Light rain, Showers, Mostly cloudy
Light rain, Showers, Mostly cloudy
 Wind from WSW
Wind: WSW 24 km/h
Temperature: 10°C
Wind Chill: 7°C
Dew Point: 4°C
Humidity: 67%
Barometer: 1012 hPa
Summary: Light rain, Showers
Clouds: Mostly cloudy
Visibility: 10 km
Cloud details: Few Clouds 610 m
Partly cloudy 1097 m
Mostly cloudy 1372 m
2021/04/11 08:30 YMHB 110830Z 25013KT 9999 -SHRA FEW020 SCT036 BKN045 10/04 Q1012
 
YMAV - Avalon Airport, Australia
Distance from station: NNW 601km
Updated: 11/04/2021 18:30
Partly cloudy
Partly cloudy
 Wind from WSW
Wind: WSW 31 km/h
Temperature: 12°C
Dew Point: 6°C
Humidity: 67%
Barometer: 1019 hPa
Clouds: Partly cloudy
Visibility: 10 km
Cloud details: Partly cloudy 1097 m
Partly cloudy 1463 m
Partly cloudy 1646 m
2021/04/11 08:30 YMAV 110830Z AUTO 24017KT 9999 // SCT036 SCT048 SCT054 12/06 Q1019
YMML - Melbourne Intl A, Australia
Distance from station: NNW 631km
Updated: 11/04/2021 18:30
Mostly cloudy
Mostly cloudy
 Wind from SW
Wind: SW 28 km/h
Temperature: 11°C
Dew Point: 4°C
Humidity: 62%
Barometer: 1019 hPa
Clouds: Mostly cloudy
Visibility: 10 km
Cloud details: Few Clouds 1158 m
Partly cloudy 1402 m
Mostly cloudy 2042 m
2021/04/11 08:30 YMML 110830Z 22015KT 9999 FEW038 SCT046 BKN067 11/04 Q1019